createdAt,value
2023-04-11T00:02:17.777Z,79.54
2023-04-11T00:04:45.640Z,80.79
2023-04-11T00:07:13.402Z,80.72
2023-04-11T00:09:41.098Z,80.12
2023-04-11T00:12:08.805Z,80.19
2023-04-11T00:14:36.524Z,80.70
2023-04-11T00:17:06.097Z,81.07
2023-04-11T00:19:33.835Z,80.94
2023-04-11T00:22:01.519Z,81.33
2023-04-11T00:24:29.201Z,81.37
2023-04-11T00:26:58.326Z,81.23
2023-04-11T00:29:25.987Z,80.67
2023-04-11T00:31:55.428Z,78.11
2023-04-11T00:34:24.566Z,76.21
2023-04-11T00:36:52.300Z,77.05
2023-04-11T00:39:21.273Z,76.38
2023-04-11T00:41:49.276Z,75.67
2023-04-11T00:44:17.081Z,75.80
2023-04-11T00:46:46.162Z,75.95
2023-04-11T00:49:14.243Z,77.40
2023-04-11T00:51:43.376Z,76.44
2023-04-11T00:54:12.133Z,77.19
2023-04-11T00:56:39.975Z,76.52
2023-04-11T00:59:07.644Z,76.06
2023-04-11T01:01:36.341Z,77.04
2023-04-11T01:04:04.716Z,76.63
2023-04-11T01:06:33.669Z,76.56
2023-04-11T01:09:04.836Z,76.41
2023-04-11T01:11:33.489Z,77.33
2023-04-11T01:14:01.210Z,77.34
2023-04-11T01:16:28.899Z,75.98
2023-04-11T01:18:56.817Z,76.35
2023-04-11T01:21:26.129Z,75.94
2023-04-11T01:23:56.442Z,77.65
2023-04-11T01:26:24.113Z,77.28
2023-04-11T01:28:52.488Z,78.05
2023-04-11T01:31:20.253Z,77.77
2023-04-11T01:33:48.316Z,78.44
2023-04-11T01:36:15.960Z,78.65
2023-04-11T01:38:43.743Z,79.06
2023-04-11T01:41:13.214Z,79.64
2023-04-11T01:43:41.031Z,80.02
2023-04-11T01:46:09.085Z,79.65
2023-04-11T01:48:36.791Z,79.75
2023-04-11T01:51:04.938Z,79.66
2023-04-11T01:53:32.754Z,79.91
2023-04-11T01:56:00.467Z,79.95
2023-04-11T01:58:29.617Z,80.44
2023-04-11T02:00:57.293Z,80.20
2023-04-11T02:03:25.073Z,79.99
2023-04-11T02:05:52.916Z,80.39
2023-04-11T02:08:20.635Z,80.20
2023-04-11T02:10:48.387Z,80.33
2023-04-11T02:13:16.058Z,80.24
2023-04-11T02:15:45.180Z,79.97
2023-04-11T02:18:13.083Z,79.87
2023-04-11T02:20:41.514Z,80.21
2023-04-11T02:23:09.285Z,80.41
2023-04-11T02:25:37.045Z,80.05
2023-04-11T02:28:07.425Z,80.19
2023-04-11T02:30:35.903Z,80.03
2023-04-11T02:33:05.121Z,80.03
2023-04-11T02:35:32.874Z,80.20
2023-04-11T02:38:00.745Z,80.11
2023-04-11T02:40:28.856Z,79.91
2023-04-11T02:42:56.479Z,80.24
2023-04-11T02:45:24.143Z,80.08
2023-04-11T02:47:51.865Z,79.60
2023-04-11T02:50:21.107Z,79.59
2023-04-11T02:52:49.663Z,79.07
2023-04-11T02:55:17.414Z,79.03
2023-04-11T02:57:45.073Z,79.08
2023-04-11T03:00:13.738Z,78.53
2023-04-11T03:02:41.759Z,77.98
2023-04-11T03:05:10.454Z,77.04
2023-04-11T03:07:40.617Z,77.56
2023-04-11T03:10:09.620Z,77.48
2023-04-11T03:12:37.358Z,77.51
2023-04-11T03:15:05.763Z,77.47
2023-04-11T03:17:34.369Z,77.56
2023-04-11T03:20:02.106Z,77.45
2023-04-11T03:22:29.800Z,76.57
2023-04-11T03:24:58.835Z,75.86
2023-04-11T03:27:27.121Z,76.63
2023-04-11T03:29:54.920Z,75.41
2023-04-11T03:32:22.718Z,75.39
2023-04-11T03:34:51.785Z,75.52
2023-04-11T03:37:19.545Z,75.80
2023-04-11T03:39:47.196Z,75.60
2023-04-11T03:42:16.293Z,75.04
2023-04-11T03:44:44.026Z,74.20
2023-04-11T03:47:11.757Z,74.40
2023-04-11T03:49:39.620Z,75.03
2023-04-11T03:52:07.398Z,74.57
2023-04-11T03:54:35.194Z,74.94
2023-04-11T03:57:02.859Z,74.47
2023-04-11T03:59:31.995Z,73.99
2023-04-11T04:01:59.698Z,74.23
2023-04-11T04:04:27.566Z,74.13
2023-04-11T04:06:56.781Z,74.66
2023-04-11T04:09:24.689Z,74.18
2023-04-11T04:11:52.365Z,73.58
2023-04-11T04:14:20.399Z,74.12
2023-04-11T04:16:49.549Z,74.54
2023-04-11T04:19:17.237Z,74.87
2023-04-11T04:21:45.893Z,73.86
2023-04-11T04:24:13.602Z,74.26
2023-04-11T04:26:41.300Z,74.07
2023-04-11T04:29:10.272Z,74.45
2023-04-11T04:31:38.724Z,73.76
2023-04-11T04:34:09.567Z,73.61
2023-04-11T04:36:46.205Z,73.10
2023-04-11T04:39:17.457Z,73.81
2023-04-11T04:41:46.432Z,73.38
2023-04-11T04:44:15.967Z,73.40
2023-04-11T04:46:43.737Z,73.79
2023-04-11T04:49:12.777Z,73.74
2023-04-11T04:51:41.228Z,73.93
2023-04-11T04:54:08.919Z,74.10
2023-04-11T04:56:36.606Z,73.39
2023-04-11T04:59:04.400Z,73.79
2023-04-11T05:01:33.010Z,73.76
2023-04-11T05:04:01.945Z,73.60
2023-04-11T05:06:32.586Z,73.42
2023-04-11T05:09:03.764Z,73.96
2023-04-11T05:11:31.459Z,73.59
2023-04-11T05:13:59.117Z,73.48
2023-04-11T05:16:26.831Z,73.44
2023-04-11T05:18:54.454Z,73.31
2023-04-11T05:21:22.312Z,72.85
2023-04-11T05:23:51.397Z,72.50
2023-04-11T05:26:19.042Z,72.64
2023-04-11T05:28:47.007Z,72.44
2023-04-11T05:31:14.786Z,72.85
2023-04-11T05:33:43.203Z,72.80
2023-04-11T05:36:13.950Z,73.17
2023-04-11T05:38:41.885Z,73.07
2023-04-11T05:41:11.548Z,74.51
2023-04-11T05:43:39.410Z,74.10
2023-04-11T05:46:08.895Z,75.39
2023-04-11T05:48:38.157Z,75.25
2023-04-11T05:51:06.159Z,75.02
2023-04-11T05:53:33.816Z,75.56
2023-04-11T05:56:01.830Z,75.43
2023-04-11T05:58:30.994Z,75.34
2023-04-11T06:00:59.471Z,76.30
2023-04-11T06:03:27.587Z,76.04
2023-04-11T06:05:55.551Z,74.99
2023-04-11T06:08:23.355Z,74.53
2023-04-11T06:10:51.062Z,74.50
2023-04-11T06:13:18.782Z,74.76
2023-04-11T06:15:47.917Z,74.04
2023-04-11T06:18:15.688Z,73.95
2023-04-11T06:20:43.310Z,73.42
2023-04-11T06:23:11.062Z,74.04
2023-04-11T06:25:38.770Z,73.56
2023-04-11T06:28:06.549Z,74.14
2023-04-11T06:30:34.223Z,73.05
2023-04-11T06:33:03.456Z,72.50
2023-04-11T06:35:31.269Z,72.29
2023-04-11T06:37:59.045Z,71.70
2023-04-11T06:40:26.735Z,70.76
2023-04-11T06:42:55.297Z,70.95
2023-04-11T06:45:23.068Z,70.51
2023-04-11T06:47:51.078Z,69.68
2023-04-11T06:50:20.355Z,69.57
2023-04-11T06:52:48.102Z,69.23
2023-04-11T06:55:16.136Z,69.23
2023-04-11T06:57:44.674Z,68.07
2023-04-11T07:00:13.585Z,69.10
2023-04-11T07:02:41.904Z,68.63
2023-04-11T07:05:10.318Z,69.05
2023-04-11T07:07:39.765Z,68.47
2023-04-11T07:10:08.642Z,68.25
2023-04-11T07:12:36.347Z,68.40
2023-04-11T07:15:04.764Z,68.52
2023-04-11T07:17:32.470Z,68.24
2023-04-11T07:20:00.196Z,67.81
2023-04-11T07:22:29.262Z,67.98
2023-04-11T07:24:58.394Z,68.10
2023-04-11T07:27:26.585Z,68.21
2023-04-11T07:29:54.279Z,66.55
2023-04-11T07:32:21.995Z,66.78
2023-04-11T07:34:49.766Z,66.78
2023-04-11T07:37:18.195Z,67.45
2023-04-11T07:39:45.911Z,66.70
2023-04-11T07:42:14.994Z,65.44
2023-04-11T07:44:42.692Z,65.56
2023-04-11T07:47:10.387Z,65.76
2023-04-11T07:49:38.096Z,64.64
2023-04-11T07:52:06.016Z,65.01
2023-04-11T07:54:34.154Z,64.16
2023-04-11T07:57:02.488Z,63.60
2023-04-11T07:59:31.756Z,64.36
2023-04-11T08:02:01.104Z,65.61
2023-04-11T08:04:32.525Z,64.07
2023-04-11T08:07:00.508Z,64.81
2023-04-11T08:09:28.618Z,65.24
2023-04-11T08:11:57.015Z,62.95
2023-04-11T08:14:24.778Z,64.19
2023-04-11T08:16:54.454Z,63.48
2023-04-11T08:19:22.357Z,62.26
2023-04-11T08:21:50.044Z,62.28
2023-04-11T08:24:17.846Z,61.82
2023-04-11T08:26:45.617Z,61.83
2023-04-11T08:29:13.404Z,61.36
2023-04-11T08:31:43.510Z,61.37
2023-04-11T08:34:12.790Z,61.06
2023-04-11T08:36:41.403Z,60.26
2023-04-11T08:39:09.076Z,60.92
2023-04-11T08:41:37.171Z,60.72
2023-04-11T08:44:05.630Z,58.92
2023-04-11T08:46:34.193Z,58.32
2023-04-11T08:49:02.068Z,57.99
2023-04-11T08:51:31.557Z,57.61
2023-04-11T08:54:02.225Z,56.87
2023-04-11T08:56:29.929Z,55.83
2023-04-11T08:58:57.604Z,57.55
2023-04-11T09:01:27.269Z,55.70
2023-04-11T09:03:55.359Z,53.76
2023-04-11T09:06:23.505Z,54.16
2023-04-11T09:08:52.650Z,53.56
2023-04-11T09:11:20.778Z,53.86
2023-04-11T09:13:48.593Z,54.77
2023-04-11T09:16:16.539Z,54.50
2023-04-11T09:18:46.252Z,54.58
2023-04-11T09:21:15.295Z,53.96
2023-04-11T09:23:43.379Z,53.91
2023-04-11T09:26:13.592Z,53.21
2023-04-11T09:28:42.959Z,53.98
2023-04-11T09:31:12.951Z,55.15
2023-04-11T09:33:41.264Z,56.33
2023-04-11T09:36:20.142Z,54.95
2023-04-11T09:38:47.931Z,54.56
2023-04-11T09:41:17.281Z,54.22
2023-04-11T09:43:56.617Z,53.82
2023-04-11T09:46:25.366Z,53.46
2023-04-11T09:48:54.647Z,53.71
2023-04-11T09:53:53.383Z,51.54
2023-04-11T09:56:24.126Z,52.13
2023-04-11T09:58:52.401Z,51.95
2023-04-11T10:01:20.629Z,52.24
2023-04-11T10:03:51.084Z,52.66
2023-04-11T10:06:24.212Z,52.00
2023-04-11T10:08:52.741Z,51.17
2023-04-11T10:11:24.276Z,51.56
2023-04-11T10:13:52.085Z,51.27
2023-04-11T10:16:22.309Z,50.80
2023-04-11T10:19:23.634Z,52.38
2023-04-11T10:21:51.627Z,49.17
2023-04-11T10:24:21.089Z,49.21
2023-04-11T10:26:52.095Z,47.80
2023-04-11T10:29:51.369Z,49.14
2023-04-11T10:32:24.712Z,49.02
2023-04-11T10:35:20.689Z,48.95
2023-04-11T10:37:49.175Z,49.24
2023-04-11T10:40:19.666Z,49.89
2023-04-11T10:42:49.373Z,50.87
2023-04-11T10:45:27.008Z,49.41
2023-04-11T10:48:13.168Z,48.23
2023-04-11T10:50:42.517Z,46.60
2023-04-11T10:53:14.222Z,47.37
2023-04-11T10:55:47.273Z,46.81
2023-04-11T10:58:19.712Z,47.42
2023-04-11T11:01:25.680Z,46.01
2023-04-11T11:04:00.518Z,46.91
2023-04-11T11:06:29.029Z,47.21
2023-04-11T11:08:57.880Z,47.68
2023-04-11T11:11:25.623Z,47.94
2023-04-11T11:13:56.597Z,46.51
2023-04-11T11:16:25.890Z,47.33
2023-04-11T11:18:55.020Z,46.97
2023-04-11T11:21:28.334Z,46.62
2023-04-11T11:23:58.288Z,45.24
2023-04-11T11:26:39.341Z,45.74
2023-04-11T11:29:09.086Z,46.30
2023-04-11T11:31:39.259Z,45.62
2023-04-11T11:34:22.319Z,45.53
2023-04-11T11:36:51.255Z,46.08
2023-04-11T11:39:21.144Z,43.67
2023-04-11T11:41:50.172Z,42.71
2023-04-11T11:44:26.713Z,41.71
2023-04-11T11:47:04.768Z,40.28
2023-04-11T11:49:45.558Z,41.15
2023-04-11T11:52:13.822Z,42.32
2023-04-11T11:54:45.553Z,41.71
2023-04-11T11:57:13.328Z,40.60
2023-04-11T11:59:42.675Z,40.63
2023-04-11T12:02:10.611Z,41.31
2023-04-11T12:04:38.528Z,41.17
2023-04-11T12:07:11.238Z,41.70
2023-04-11T12:09:39.807Z,41.69
2023-04-11T12:12:10.161Z,41.50
2023-04-11T12:14:37.816Z,41.48
2023-04-11T12:17:09.595Z,41.54
2023-04-11T12:19:37.298Z,41.94
2023-04-11T12:22:05.057Z,41.16
2023-04-11T12:24:32.767Z,40.90
2023-04-11T12:29:48.103Z,39.52
2023-04-11T12:32:17.168Z,39.57
2023-04-11T12:34:44.921Z,40.70
2023-04-11T12:37:12.609Z,40.27
2023-04-11T12:39:40.318Z,41.56
2023-04-11T12:42:08.987Z,40.06
2023-04-11T12:44:37.652Z,39.40
2023-04-11T12:47:05.592Z,39.79
2023-04-11T12:49:34.661Z,38.17
2023-04-11T12:52:02.866Z,38.56
2023-04-11T12:54:30.519Z,38.13
2023-04-11T12:56:58.354Z,39.11
2023-04-11T12:59:26.724Z,39.15
2023-04-11T13:01:54.412Z,39.68
2023-04-11T13:04:22.492Z,39.79
2023-04-11T13:06:52.377Z,37.96
2023-04-11T13:09:20.047Z,37.17
2023-04-11T13:11:47.690Z,36.98
2023-04-11T13:14:15.432Z,36.82
2023-04-11T13:16:45.743Z,37.51
2023-04-11T13:19:13.520Z,36.41
2023-04-11T13:21:41.152Z,36.76
2023-04-11T13:24:10.284Z,37.24
2023-04-11T13:26:39.336Z,37.20
2023-04-11T13:29:07.691Z,34.83
2023-04-11T13:31:35.704Z,35.92
2023-04-11T13:34:03.523Z,34.98
2023-04-11T13:36:32.288Z,35.11
2023-04-11T13:39:00.192Z,34.66
2023-04-11T13:41:29.407Z,34.47
2023-04-11T13:43:57.082Z,34.35
2023-04-11T13:46:24.736Z,35.12
2023-04-11T13:48:52.948Z,35.41
2023-04-11T13:51:20.691Z,36.11
2023-04-11T13:53:48.352Z,34.38
2023-04-11T13:56:16.085Z,33.80
2023-04-11T13:58:45.405Z,35.17
2023-04-11T14:01:13.133Z,34.01
2023-04-11T14:03:42.929Z,34.82
2023-04-11T14:06:10.910Z,34.18
2023-04-11T14:08:38.609Z,34.09
2023-04-11T14:11:06.597Z,34.62
2023-04-11T14:13:34.291Z,34.05
2023-04-11T14:16:08.586Z,32.82
2023-04-11T14:18:37.240Z,32.79
2023-04-11T14:21:06.084Z,33.99
2023-04-11T14:24:41.688Z,33.27
2023-04-11T14:27:09.567Z,34.85
2023-04-11T14:29:37.569Z,34.38
2023-04-11T14:32:06.900Z,32.93
2023-04-11T14:34:34.732Z,33.61
2023-04-11T14:37:02.471Z,32.69
2023-04-11T14:39:30.432Z,32.91
2023-04-11T14:42:01.941Z,32.24
2023-04-11T14:44:29.969Z,32.73
2023-04-11T14:46:57.762Z,33.52
2023-04-11T14:49:25.581Z,33.37
2023-04-11T14:51:53.229Z,34.09
2023-04-11T14:54:21.388Z,33.99
2023-04-11T14:56:49.171Z,32.95
2023-04-11T14:59:18.291Z,33.22
2023-04-11T15:01:46.423Z,33.49
2023-04-11T15:04:14.682Z,32.78
2023-04-11T15:06:42.476Z,33.73
2023-04-11T15:09:10.344Z,33.19
2023-04-11T15:11:37.999Z,33.33
2023-04-11T15:14:05.705Z,32.33
2023-04-11T15:16:34.831Z,32.10
2023-04-11T15:19:02.556Z,32.27
2023-04-11T15:21:30.271Z,31.79
2023-04-11T15:23:58.230Z,33.05
2023-04-11T15:26:26.334Z,33.43
2023-04-11T15:28:54.105Z,32.74
2023-04-11T15:31:26.468Z,32.69
2023-04-11T15:33:57.181Z,33.16
2023-04-11T15:36:25.051Z,33.06
2023-04-11T15:38:52.760Z,33.50
2023-04-11T15:41:20.800Z,33.73
2023-04-11T15:43:48.563Z,33.92
2023-04-11T15:46:16.328Z,33.85
2023-04-11T15:48:44.243Z,33.44
2023-04-11T15:51:21.409Z,31.67
2023-04-11T15:53:49.409Z,32.15
2023-04-11T15:56:18.926Z,32.28
2023-04-11T15:58:49.648Z,31.82
2023-04-11T16:01:22.837Z,32.41
2023-04-11T16:03:51.703Z,32.55
2023-04-11T16:06:21.113Z,31.94
2023-04-11T16:08:50.479Z,32.27
2023-04-11T16:11:19.819Z,33.37
2023-04-11T16:13:48.955Z,33.03
2023-04-11T16:16:16.661Z,32.46
2023-04-11T16:18:44.443Z,32.29
2023-04-11T16:21:16.456Z,32.52
2023-04-11T16:23:47.912Z,32.28
2023-04-11T16:26:16.131Z,33.35
2023-04-11T16:28:44.106Z,32.83
2023-04-11T16:31:14.150Z,32.68
2023-04-11T16:33:41.872Z,33.20
2023-04-11T16:36:12.996Z,32.62
2023-04-11T16:38:40.721Z,33.09
2023-04-11T16:41:09.757Z,32.70
2023-04-11T16:43:37.425Z,32.23
2023-04-11T16:46:07.398Z,33.36
2023-04-11T16:48:35.152Z,33.16
2023-04-11T16:51:02.973Z,33.75
2023-04-11T16:53:30.880Z,33.67
2023-04-11T16:55:58.584Z,33.94
2023-04-11T16:58:28.532Z,33.09
2023-04-11T17:00:56.342Z,33.86
2023-04-11T17:03:24.130Z,34.16
2023-04-11T17:05:52.094Z,33.82
2023-04-11T17:08:19.784Z,33.78
2023-04-11T17:10:47.454Z,33.62
2023-04-11T17:13:17.992Z,33.65
2023-04-11T17:15:47.153Z,33.13
2023-04-11T17:18:15.317Z,34.13
2023-04-11T17:20:43.758Z,34.13
2023-04-11T17:23:11.409Z,34.62
2023-04-11T17:25:39.099Z,34.15
2023-04-11T17:28:06.840Z,34.07
2023-04-11T17:30:35.406Z,35.00
2023-04-11T17:33:04.594Z,34.80
2023-04-11T17:35:32.345Z,35.00
2023-04-11T17:38:00.623Z,35.50
2023-04-11T17:40:28.489Z,35.49
2023-04-11T17:42:57.668Z,35.33
2023-04-11T17:45:25.458Z,35.58
2023-04-11T17:47:53.255Z,36.02
2023-04-11T17:50:22.468Z,36.82
2023-04-11T17:52:50.132Z,36.80
2023-04-11T17:55:18.874Z,37.34
2023-04-11T17:57:47.290Z,37.57
2023-04-11T18:00:19.876Z,37.37
2023-04-11T18:02:49.068Z,37.81
2023-04-11T18:05:23.895Z,38.63
2023-04-11T18:07:56.488Z,39.45
2023-04-11T18:10:25.823Z,39.70
2023-04-11T18:12:54.436Z,39.75
2023-04-11T18:15:22.703Z,41.51
2023-04-11T18:17:51.861Z,40.22
2023-04-11T18:20:19.882Z,40.04
2023-04-11T18:22:48.702Z,40.29
2023-04-11T18:25:17.882Z,40.43
2023-04-11T18:27:45.600Z,41.33
2023-04-11T18:30:14.647Z,41.69
2023-04-11T18:32:47.297Z,42.27
2023-04-11T18:35:16.120Z,42.15
2023-04-11T18:37:44.016Z,42.12
2023-04-11T18:40:13.987Z,43.31
2023-04-11T18:42:45.948Z,42.95
2023-04-11T18:45:15.026Z,43.80
2023-04-11T18:47:43.098Z,44.04
2023-04-11T18:50:11.373Z,43.58
2023-04-11T18:52:39.110Z,43.66
2023-04-11T18:55:07.962Z,43.45
2023-04-11T18:57:37.945Z,43.91
2023-04-11T19:00:17.496Z,43.82
2023-04-11T19:02:46.803Z,44.04
2023-04-11T19:05:15.600Z,44.02
2023-04-11T19:07:43.833Z,44.36
2023-04-11T19:10:12.736Z,44.33
2023-04-11T19:12:41.028Z,45.29
2023-04-11T19:15:11.637Z,44.89
2023-04-11T19:17:39.719Z,45.15
2023-04-11T19:20:12.315Z,45.21
2023-04-11T19:22:41.284Z,45.66
2023-04-11T19:25:11.076Z,45.40
2023-04-11T19:27:41.396Z,45.50
2023-04-11T19:30:15.724Z,45.72
2023-04-11T19:32:46.056Z,45.84
2023-04-11T19:35:14.304Z,45.95
2023-04-11T19:37:42.800Z,45.89
2023-04-11T19:40:12.344Z,45.64
2023-04-11T19:42:40.550Z,45.85
2023-04-11T19:45:11.885Z,45.95
2023-04-11T19:47:40.662Z,45.31
2023-04-11T19:50:11.604Z,45.62
2023-04-11T19:52:39.437Z,45.30
2023-04-11T19:55:09.369Z,45.56
2023-04-11T19:57:38.301Z,44.49
2023-04-11T20:00:11.817Z,44.87
2023-04-11T20:02:44.321Z,44.17
2023-04-11T20:05:12.422Z,44.33
2023-04-11T20:07:40.229Z,44.56
2023-04-11T20:10:09.014Z,44.45
2023-04-11T20:12:36.698Z,44.63
2023-04-11T20:15:04.606Z,44.49
2023-04-11T20:17:32.371Z,44.41
2023-04-11T20:20:06.076Z,44.79
2023-04-11T20:22:34.177Z,44.79
2023-04-11T20:25:02.005Z,44.50
2023-04-11T20:27:29.754Z,44.89
2023-04-11T20:29:57.869Z,44.88
2023-04-11T20:32:25.652Z,44.70
2023-04-11T20:34:53.443Z,44.64
2023-04-11T20:37:23.418Z,44.80
2023-04-11T20:39:51.702Z,45.19
2023-04-11T20:42:20.491Z,44.66
2023-04-11T20:44:48.450Z,44.55
2023-04-11T20:47:16.169Z,44.80
2023-04-11T20:49:45.613Z,45.45
2023-04-11T20:52:13.550Z,45.38
2023-04-11T20:54:42.598Z,44.76
2023-04-11T20:57:10.248Z,45.02
2023-04-11T20:59:39.123Z,44.74
2023-04-11T21:02:06.963Z,45.10
2023-04-11T21:04:34.890Z,45.56
2023-04-11T21:07:02.952Z,45.39
2023-04-11T21:09:30.806Z,45.66
2023-04-11T21:11:59.853Z,45.76
2023-04-11T21:14:27.538Z,46.56
2023-04-11T21:16:55.215Z,46.64
2023-04-11T21:19:22.918Z,46.57
2023-04-11T21:21:50.705Z,46.86
2023-04-11T21:24:18.374Z,46.97
2023-04-11T21:26:46.124Z,47.47
2023-04-11T21:29:15.212Z,47.77
2023-04-11T21:31:43.056Z,48.27
2023-04-11T21:34:10.835Z,48.07
2023-04-11T21:36:38.480Z,48.31
2023-04-11T21:39:08.709Z,48.39
2023-04-11T21:41:36.584Z,49.09
2023-04-11T21:44:04.412Z,49.01
2023-04-11T21:46:33.546Z,49.30
2023-04-11T21:49:01.766Z,49.63
2023-04-11T21:51:29.435Z,49.99
2023-04-11T21:53:57.317Z,50.45
2023-04-11T21:56:25.237Z,50.26
2023-04-11T21:58:52.966Z,50.81
2023-04-11T22:01:21.108Z,50.56
2023-04-11T22:03:52.502Z,50.98
2023-04-11T22:06:20.521Z,51.26
2023-04-11T22:08:50.534Z,51.69
2023-04-11T22:11:18.366Z,51.33
2023-04-11T22:13:46.746Z,51.32
2023-04-11T22:16:15.107Z,51.93
2023-04-11T22:18:49.737Z,51.95
2023-04-11T22:21:21.021Z,52.55
2023-04-11T22:23:54.366Z,52.23
2023-04-11T22:26:26.374Z,52.39
2023-04-11T22:28:55.396Z,52.69
2023-04-11T22:31:23.311Z,53.16
2023-04-11T22:33:51.127Z,52.83
2023-04-11T22:36:21.482Z,53.53
2023-04-11T22:38:49.300Z,53.36
2023-04-11T22:41:17.256Z,53.51
2023-04-11T22:43:45.333Z,53.76
2023-04-11T22:46:13.675Z,53.76
2023-04-11T22:48:41.960Z,54.30
2023-04-11T22:51:09.714Z,54.23
2023-04-11T22:53:42.306Z,54.07
2023-04-11T22:56:11.785Z,54.48
2023-04-11T22:58:39.499Z,54.42
2023-04-11T23:01:08.108Z,54.45
2023-04-11T23:03:35.890Z,54.30
2023-04-11T23:06:03.690Z,54.82
2023-04-11T23:08:32.526Z,54.97
2023-04-11T23:11:01.896Z,54.88
2023-04-11T23:13:29.923Z,54.89
2023-04-11T23:15:57.972Z,55.18
2023-04-11T23:18:25.756Z,55.20
2023-04-11T23:20:53.485Z,55.50
2023-04-11T23:23:21.243Z,55.23
2023-04-11T23:25:49.543Z,55.39
2023-04-11T23:28:18.635Z,55.32
2023-04-11T23:30:46.393Z,55.15
2023-04-11T23:33:15.449Z,55.25
2023-04-11T23:35:43.164Z,55.24
2023-04-11T23:38:11.586Z,55.26
2023-04-11T23:40:39.488Z,55.19
2023-04-11T23:43:07.210Z,55.05
2023-04-11T23:45:36.450Z,55.09
2023-04-11T23:48:04.378Z,55.13
2023-04-11T23:50:32.139Z,55.11
2023-04-11T23:52:59.797Z,55.22
2023-04-11T23:55:27.537Z,55.37
2023-04-11T23:57:55.281Z,55.71
